ScraperWiki Classic is now read-only.

But don’t worry! You can transfer this scraper to Morph.io if you want to continue editing it.

Transfer to Morph.io

Current status

Idle – next run ASAP

Last run

1 week, 1 day ago

No pages scraped

About this scraper

The purpose of this package is to scrape (i.e. download) climate/weather data
that is publicly available at

http://www.dwd.de/ > Klima + Umwelt > Klimadaten > Daten online – frei > Klimadaten Deutschland > Messstationen > Tageswerte

Unfortunately the original data is not available under a persistent URL.

The data is collected daily from a number of weather stations throughout Germany.

The beginning of the data collection of some of the stations dates back to more
than 100 years ago, so the time series allows for a long-term comparison of
values.

Data description

  • station_id: Unique identifier of the weather station. The DWD provides a station list, again under a non-permanent URL. You can find it near the original source described above
  • date: Date string of the data recording in format YYYYMMDD
  • quality_level: An Integer between 0 and 16 describing the quality level of the record. A more detailed explanation can be found on the DWD website near the original data.
  • temperature_5cm_min: Minimum temperature 0,05 meters above ground level in degrees centigrade
  • temperature_200cm_min: Minimum temperature 2 meters above ground level in degrees centigrade
  • temperature_200cm_average: Average temperature 2 meters above ground level in degrees centigrade
  • temperature_200cm_max: Maximum temperature 2 meters above ground level in degrees centigrade
  • relative_humidity: Average relative humidity in percent
  • wind_force_average: Average wind force in beaufort (Integer)
  • wind_speed_max: Maximum wind speed in meters per second
  • sunshine_duration: Duration of sunshine in hours
  • cloud_amount_average: Amount of clouds in eights
  • precipitation_height: Amount of rain/percipitation in mm
  • barometric_pressure_average: Average barometric pressure in hpa

This scraper is public

Anyone can see this scraper, and any registered user can edit it.

Users who have contributed to this scraper:

wind_speed_max temperature_5cm_min wind_force_average precipitation_height sunshine_duration station_id temperature_200cm_average relative_humidity quality_level cloud_amount_average barometric_pressure_average date temperature_200cm_max temperature_200cm_min
6.6 -4.8 1.0 1.2 1.5 10641 1.0 89.7 3 3.0 983.6 20090205 5.9 -2.7
7.6 -9.8 2.0 0.3 1.3 10532 -3.2 86.5 3 4.5 1002.2 20090215 0.5 -7.9
19.4 -0.1 4.0 4.9 0.0 10532 2.5 93.6 3 6.3 966.3 20090210 5.8 0.1
11.3 -3.4 2.0 7.1 0.4 10438 -0.2 86.6 3 7.0 977.4 20090209 0.9 -1.8
9.1 0.1 2.0 1.1 0.0 10675 1.7 94.4 3 7.4 992.5 20090222 3.4 0.1
8.3 -6.3 2.0 0.0 0.6 10675 0.5 76.6 3 6.9 975.0 20090202 4.8 -5.0
10.7 1.0 3.0 1.0 0.0 10020 2.8 98.6 3 7.9 1017.7 20090219 4.1 1.4
12.0 -1.6 4.0 0.4 1.4 10020 1.0 95.6 3 6.5 997.4 20090209 2.0 0.1
17.9 12.5 5.0 0.0 1.9 10020 14.6 74.0 1 6.0 1014.7 20110630 17.1 13.5
0.0 13.8 4.0 996.0 8.0 10291 15.4 92.3 1 53.9 10291 20110721 16.6 14.1
21.5 12.3 6.0 999.8 0.1 10113 14.5 84.7 1 6.6 10113 20110723 15.2 13.2
14.9 13.6 4.0 1008.7 11.7 10113 16.2 80.2 1 0.0 10113 20110721 17.7 15.1
10.9 12.6 3.0 1002.4 9.2 10113 16.5 77.8 1 0.0 10113 20110719 20.7 13.6
14.9 13.0 4.0 993.8 6.7 10113 16.4 81.6 1 5.4 10113 20110717 20.7 13.9
20.0 13.4 5.0 1010.0 7.6 10113 15.9 85.7 1 0.4 10113 20110715 17.5 14.3
21.9 12.8 6.0 1007.2 0.0 10113 15.4 93.7 1 26.0 10113 20110713 17.1 13.5
5.6 12.0 2.0 0.0 15.4 10113 16.7 80.7 1 3.5 1018.2 20110711 19.0 14.5
7.6 7.8 2.0 994.5 5.0 10501 13.1 72.8 3 5.2 10501 20110702 17.6 9.0
10438 6.5 0.0 8.0 20110827 10438 14.5 3.0 1 1 10.0 20110828 19.0 8.5
10438 15.0 25.0 13.0 20110825 10438 22.5 10.0 1 1 14.0 20110826 31.0 14.0
7.4 15.0 1.0 987.6 5.3 10438 21.3 81.8 1 6.0 10438 20110824 28.7 16.0
6.5 14.9 4.3 10946 60.7 10946 19.3 87.4 1 932.4 20110903 20110904 25.8 15.1
5.3 10.8 3.5 10946 0.7 10946 17.3 83.0 1 934.9 20110901 20110902 24.3 12.3
3.5 6.6 10.8 10946 0.0 10946 15.2 75.6 1 932.8 20110830 20110831 23.4 7.9
3.0 6.5 9.7 10946 0.0 10946 14.6 74.1 1 936.2 20110828 20110829 20.4 8.2
9.3 5.8 2.0 14.1 2.7 10946 10.6 86.2 1 5.3 937.2 20110827 13.8 7.4
7.0 14.1 0.1 10815 12.4 10815 17.5 89.5 1 922.0 20110903 20110904 21.0 14.7
4.0 11.1 4.9 10815 0.4 10815 17.9 80.7 1 923.9 20110901 20110902 23.6 12.8
2.4 4.7 9.1 10815 0.0 10815 13.3 68.0 1 922.4 20110830 20110831 19.5 6.6
5.9 5.3 5.5 10815 0.0 10815 11.7 77.5 1 925.8 20110828 20110829 16.0 6.9
6.6 8.1 1.7 10815 6.2 10815 9.7 94.7 1 924.9 20110826 20110827 12.1 7.9
4.4 12.8 6.8 10815 0.0 10815 19.8 75.8 1 924.2 20110824 20110825 26.8 14.4
10.2 16.6 2.0 925.6 1.5 10815 25.0 46.8 1 0.0 10815 20110823 29.8 19.0
11.4 4.6 11.4 20090329 1019.5 10004 6.7 4.0 3 10004 3 20090330 76.3 5.8
0.2 4.4 13.1 20090327 994.9 10004 5.8 4.0 3 10004 3 20090328 90.2 5.1
0.2 4.6 14.8 20090325 996.5 10004 6.9 4.0 3 10004 3 20090326 91.0 5.8
11.3 3.1 17.3 20090323 1006.6 10004 5.2 5.0 3 10004 3 20090324 71.2 4.4
4.4 5.3 15.4 20090321 1021.7 10004 6.6 5.0 3 10004 3 20090322 90.9 5.9
11.6 1.9 5.5 20090319 1033.9 10004 5.1 2.0 3 10004 3 20090320 81.0 4.3
5.4 4.5 8.5 20090317 1032.8 10004 5.3 3.0 3 10004 3 20090318 93.0 4.9
0.0 4.0 9.7 20090315 1031.5 10004 6.2 4.0 3 10004 3 20090316 97.3 4.9
0.0 5.2 15.0 20090313 1013.2 10004 6.7 4.0 3 10004 3 20090314 91.5 5.8
2.0 4.6 12.3 20090311 1014.8 10004 6.3 5.0 3 10004 3 20090312 93.7 5.5
0.7 4.1 13.5 20090309 1006.5 10004 5.5 4.0 3 10004 3 20090310 91.9 4.7
7.6 2.9 18.6 20090307 997.9 10004 6.4 5.0 3 10004 3 20090308 88.2 5.2
0.0 2.7 9.5 20090305 999.9 10004 4.8 3.0 3 10004 3 20090306 94.3 4.0
2.9 4.4 19.6 20090303 989.7 10004 7.0 6.0 3 10004 3 20090304 79.3 5.3
0.0 3.3 11.6 20090301 1011.1 10004 5.3 4.0 3 10004 3 20090302 94.3 4.4
998.9 -4.0 0.0 3 10439 10439 79.5 2.9 3 20090329 0.0 20090330 2.0 4.2
976.8 0.0 4.5 3 10439 10439 85.2 6.0 3 20090327 4.0 20090328 3.0 5.5
982.3 -1.0 6.2 3 10439 10439 88.9 7.3 3 20090325 -7.0 20090326 3.0 5.1
984.0 0.0 0.1 3 10439 10439 73.2 4.5 3 20090323 5.0 20090324 3.0 2.7
1001.2 -6.0 0.6 3 10439 10439 75.2 5.6 3 20090321 -7.0 20090322 3.0 4.3
1009.6 -5.0 0.0 3 10439 10439 64.2 2.1 3 20090319 -2.0 20090320 2.0 1.7
1010.0 -3.0 0.0 3 10439 10439 68.4 5.6 3 20090317 3.0 20090318 2.0 4.7
1010.5 5.0 0.4 3 10439 10439 91.4 8.0 3 20090315 2.0 20090316 1.0 6.3
995.8 -1.0 0.2 3 10439 10439 84.5 7.3 3 20090313 -2.0 20090314 2.0 6.7
998.1 -2.0 6.6 3 10439 10439 92.8 7.7 3 20090311 0.0 20090312 2.0 4.2
987.2 0.0 2.6 3 10439 10439 90.4 7.5 3 20090309 0.0 20090310 3.0 4.0
984.5 -4.0 0.4 3 10439 10439 88.8 6.8 3 20090307 2.0 20090308 3.0 5.1
973.5 4.0 3.7 3 10439 10439 90.0 8.0 3 20090305 -3.0 20090306 3.0 4.6
973.6 -5.0 0.0 3 10439 10439 78.9 4.3 3 20090303 -4.0 20090304 2.0 4.1
991.4 4.0 4.4 3 10439 10439 91.8 7.1 3 20090301 5.0 20090302 2.0 6.1
1016.5 3.2 11.4 3 10124 10124 7.5 9.3 3 20090329 4.5 20090330 3.0 5.5
991.3 4.1 0.1 3 10124 10124 5.9 13.6 3 20090327 3.2 20090328 4.0 5.0
994.1 2.6 0.2 3 10124 10124 7.5 18.1 3 20090325 1.1 20090326 5.0 5.2
1001.5 2.0 9.1 3 10124 10124 4.9 18.1 3 20090323 2.5 20090324 5.0 3.4
1016.4 4.7 6.1 3 10124 10124 6.2 19.5 3 20090321 1.4 20090322 6.0 5.5
1029.9 3.2 11.7 3 10124 10124 6.5 8.7 3 20090319 4.1 20090320 2.0 4.2
1028.3 4.3 9.0 3 10124 10124 5.2 10.7 3 20090317 4.6 20090318 4.0 4.6
1027.9 3.1 0.0 3 10124 10124 7.0 12.9 3 20090315 3.9 20090316 4.0 5.0
1010.6 5.0 0.0 3 10124 10124 10.2 16.2 3 20090313 4.8 20090314 5.0 6.2
1011.6 3.9 0.0 3 10124 10124 6.6 16.3 3 20090311 4.0 20090312 5.0 4.9
1002.7 3.6 0.1 3 10124 10124 5.1 14.3 3 20090309 1.9 20090310 4.0 4.4
996.2 4.0 5.4 3 10124 10124 7.1 18.1 3 20090307 3.3 20090308 6.0 5.6
994.4 3.0 0.0 3 10124 10124 4.4 12.4 3 20090305 3.3 20090306 4.0 3.7
989.0 4.2 7.9 3 10124 10124 9.0 17.4 3 20090303 2.8 20090304 6.0 6.4
1007.3 3.4 0.0 3 10124 10124 7.0 10.4 3 20090301 4.7 20090302 4.0 4.7
1.3 5.2 8.8 20090330 1022.7 10007 6.1 4.0 3 10007 3 20090331 90.5 5.7
7.0 4.6 9.6 20090328 1008.3 10007 5.9 3.0 3 10007 3 20090329 88.8 4.9
3.8 3.6 17.7 20090326 992.7 10007 5.8 5.0 3 10007 3 20090327 83.7 5.2
0.0 1.6 17.3 20090324 996.6 10007 4.6 5.0 3 10007 3 20090325 92.5 3.1
2.1 2.5 21.7 20090322 1001.5 10007 6.0 6.0 3 10007 3 20090323 86.8 5.2
6.1 0.9 12.0 20090320 1027.0 10007 5.4 4.0 3 10007 3 20090321 90.9 3.7
9.3 3.6 9.4 20090318 1030.2 10007 5.4 3.0 3 10007 3 20090319 88.2 4.5
10.3 4.7 12.4 20090316 1033.3 10007 5.7 4.0 3 10007 3 20090317 92.0 5.1
0.0 4.1 14.3 20090314 1021.4 10007 6.0 4.0 3 10007 3 20090315 95.5 5.0
1017.7 4.1 10.1 3 10007 10007 5.6 11.6 3 20090312 4.2 20090313 4.0 4.8
1017.6 4.1 9.0 3 10007 10007 5.4 11.7 3 20090310 3.8 20090311 4.0 4.6
999.8 3.0 0.9 3 10007 10007 5.3 20.5 3 20090308 2.9 20090309 5.0 4.6
7.5 3.3 11.4 20090306 1007.6 10007 5.4 3.0 3 10007 3 20090307 90.5 4.3
0.0 3.6 11.7 20090304 990.4 10007 5.1 4.0 3 10007 3 20090305 91.8 4.3
0.2 3.4 12.7 20090302 1008.5 10007 5.6 5.0 3 10007 3 20090303 90.8 4.3
2.2 3.0 7.2 20090228 1010.1 10007 5.9 2.0 3 10007 10 20090301 94.2 4.3
6.2 1.6 13.6 20090329 1015.9 10044 7.1 4.0 3 10044 3 20090330 76.9 4.7
2.7 2.7 11.1 20090327 992.3 10044 7.3 4.0 3 10044 3 20090328 86.4 4.9
0.1 1.4 13.8 20090325 995.3 10044 6.8 5.0 3 10044 3 20090326 86.2 3.9
6.2 -0.8 19.5 20090323 999.5 10044 3.1 5.0 3 10044 3 20090324 74.0 1.4
3.7 4.4 21.1 20090321 1011.3 10044 8.2 6.0 3 10044 3 20090322 80.8 6.2
10.9 1.8 10.7 20090319 1030.0 10044 4.1 3.0 3 10044 3 20090320 70.4 3.0
March 2014
Permalink Hide details Show details 1395056099.568165_94b70bd7-9922-4c35-882a-290af76af5ab 11:34, 17 March 2014
Run succeeded: - ran 1 time, most recently for 0 seconds (0 scraped pages, 0 records) 11:34, 17 March 2014

Loading...


          
Permalink Hide details Show details 1394969431.052700_a8afa064-3801-442c-a544-4f3357940fd9 11:31, 16 March 2014
Run failed: UnicodeDecodeError: 'ascii' codec can't decode byte 0xfc in position 14: ordinal not in range(128) - ran for 0 seconds (5 scraped pages, 1 records) 11:31, 16 March 2014

Loading...


          
Permalink Hide details Show details 1394838963.134825_8cd91630-837d-4c4e-abfe-9a1f929f5bb7 23:16, 14 March 2014 1394838962.973581_4e7b36e2-64c6-46ae-b415-8438da01c66f 23:16, 14 March 2014 1394751435.593018_337e0987-e0db-4556-a2b6-c9cb2cec19c1 22:57, 13 March 2014 1394665006.693856_373d133c-7a6f-42b9-9d08-07ccb4340b6c 22:56, 12 March 2014 1394578575.602208_682ceee5-8f62-4b3a-b1af-e966698d9206 22:56, 11 March 2014 1394492145.494060_7d7ceb83-1f61-4edf-b881-5fb0d0262639 22:55, 10 March 2014 1394405716.677502_f401d86a-3f77-4199-940e-03c5947b4fed 22:55, 9 March 2014 1394319305.792807_ae666b29-c96b-4eda-92d2-f433b6dc9980 22:55, 8 March 2014
Run succeeded: - ran 8 times, most recently for 0 seconds (0 scraped pages, 0 records) 23:16, 14 March 2014

Loading...


          
April 2011
Hide changes Show changes 9 17:17, 6 April 2011 8 8 17:16, 6 April 2011 7 7 17:15, 6 April 2011 6 6 17:15, 6 April 2011 5 5 17:13, 6 April 2011 4
Edited by Marian 5 times 17:17, 6 April 2011

Loading...

Difference between, revision and previous revision


            
Hide changes Show changes 4 13:16, 4 April 2011 3
Edited by Marian 13:16, 4 April 2011

Loading...

Difference between, revision and previous revision


            
Hide changes Show changes 3 12:44, 4 April 2011 2 2 12:44, 4 April 2011 1
Edited by Marian 2 times 12:44, 4 April 2011

Loading...

Difference between, revision and previous revision


            
Hide changes Show changes 1 12:40, 4 April 2011 0
Edited by Marian 12:40, 4 April 2011

Loading...

Difference between, revision and previous revision


            
Hide first version Show first version 0 12:39, 4 April 2011
Edited by Marian 12:39, 4 April 2011

Loading...

Difference between, revision and previous revision